Time;durP1;ratioP1;P1;durP2;ratioP2;P2;SDS_P1;SDS_P2;PMS_P1;PMS_P2;Temp;Humidity;BMP_temperature;BMP_pressure;BME280_temperature;BME280_humidity;BME280_pressure;Samples;Min_cycle;Max_cycle;Signal;HPM_P1;HPM_P2
2021/09/17 00:01:07;;;;;;;17.45;10.38;;;;;;;13.87;58.15;99517.44;1718815;82;21085;-68
2021/09/17 00:03:34;;;;;;;13.15;8.40;;;;;;;13.90;58.11;99512.73;1732890;82;21090;-68
2021/09/17 00:06:00;;;;;;;17.25;8.60;;;;;;;13.95;57.98;99515.95;1747354;82;21046;-69
2021/09/17 00:08:26;;;;;;;13.38;7.42;;;;;;;13.96;57.62;99512.08;1732949;82;21035;-68
2021/09/17 00:10:54;;;;;;;13.58;8.20;;;;;;;14.00;57.61;99509.01;1733629;82;21035;-68
2021/09/17 00:13:20;;;;;;;14.98;8.33;;;;;;;14.03;57.26;99500.77;1735349;82;21604;-68
2021/09/17 00:15:49;;;;;;;12.35;8.13;;;;;;;14.06;57.13;99507.83;1746544;82;21011;-69
2021/09/17 00:18:15;;;;;;;18.10;8.68;;;;;;;14.09;57.15;99500.38;1745440;82;21043;-69
2021/09/17 00:20:42;;;;;;;15.23;10.10;;;;;;;14.10;57.11;99495.14;1743870;82;21023;-69
2021/09/17 00:23:10;;;;;;;15.63;10.23;;;;;;;14.10;57.06;99492.41;1724034;82;21084;-69
2021/09/17 00:25:36;;;;;;;16.15;10.20;;;;;;;14.12;56.87;99488.02;1710436;82;21000;-69
2021/09/17 00:28:03;;;;;;;16.40;9.93;;;;;;;14.13;56.63;99489.09;1733519;82;21047;-69
2021/09/17 00:30:29;;;;;;;12.43;8.25;;;;;;;14.17;56.49;99487.35;1736513;82;21004;-69
2021/09/17 00:32:57;;;;;;;15.83;8.03;;;;;;;14.19;56.36;99483.77;1739587;82;21028;-70
2021/09/17 00:35:24;;;;;;;13.35;7.28;;;;;;;14.21;56.34;99477.98;1738787;82;21028;-69
2021/09/17 00:37:50;;;;;;;;;;;;;;;14.22;56.19;99479.61;1731851;82;21062;-69
2021/09/17 00:40:18;;;;;;;12.07;6.72;;;;;;;14.25;56.10;99476.27;1710686;82;20110;-69
2021/09/17 00:42:44;;;;;;;12.23;7.35;;;;;;;14.19;56.13;99470.64;1727829;82;21082;-69
2021/09/17 00:45:11;;;;;;;13.22;6.97;;;;;;;14.22;56.22;99479.61;1703294;82;21059;-69
2021/09/17 00:47:39;;;;;;;11.93;6.97;;;;;;;14.25;56.11;99474.90;1730701;82;21519;-69
2021/09/17 00:50:08;;;;;;;11.78;6.87;;;;;;;14.26;55.95;99468.31;1738787;82;21070;-69
2021/09/17 00:52:34;;;;;;;11.25;6.83;;;;;;;14.29;56.06;99477.30;1732159;82;21516;-69
2021/09/17 00:55:01;;;;;;;12.78;7.33;;;;;;;14.31;55.80;99468.23;1738742;82;21580;-70
2021/09/17 00:57:27;;;;;;;14.10;6.97;;;;;;;14.34;55.76;99467.66;1710905;82;21572;-69
2021/09/17 00:59:54;;;;;;;14.28;7.90;;;;;;;14.36;55.76;99462.67;1650521;86;21554;-69
2021/09/17 01:02:20;;;;;;;14.53;7.70;;;;;;;14.36;55.73;99452.55;1712177;82;21692;-69
2021/09/17 01:04:46;;;;;;;12.65;7.75;;;;;;;14.37;55.78;99445.95;1710460;82;21514;-69
2021/09/17 01:07:14;;;;;;;10.98;7.08;;;;;;;14.38;55.66;99451.67;1717873;82;21471;-69
2021/09/17 01:09:41;;;;;;;13.00;7.03;;;;;;;14.39;55.61;99442.34;1721966;82;21012;-69
2021/09/17 01:12:08;;;;;;;15.85;7.17;;;;;;;14.42;55.66;99449.12;1690703;82;21087;-69
2021/09/17 01:14:35;;;;;;;12.03;7.40;;;;;;;14.43;55.51;99442.00;1641859;86;21090;-69
2021/09/17 01:17:03;;;;;;;13.40;8.03;;;;;;;14.46;55.74;99441.94;1712881;82;21035;-69
2021/09/17 01:19:31;;;;;;;14.18;8.30;;;;;;;14.47;55.48;99435.91;1734258;82;21012;-70
2021/09/17 01:21:58;;;;;;;;;;;;;;;14.49;55.36;99440.54;1741616;82;21038;-69
2021/09/17 01:24:24;;;;;;;;;;;;;;;14.51;55.38;99441.84;1728518;82;20113;-69
2021/09/17 01:26:52;;;;;;;14.40;6.97;;;;;;;14.47;55.25;99431.24;1727805;81;20093;-69
2021/09/17 01:29:19;;;;;;;10.32;6.78;;;;;;;14.43;55.47;99431.04;1729055;82;21043;-70
2021/09/17 01:31:47;;;;;;;11.88;6.70;;;;;;;14.48;55.22;99427.95;1719289;82;21047;-68
2021/09/17 01:34:16;;;;;;;12.23;6.80;;;;;;;14.52;55.08;99420.75;1733701;82;21101;-69
2021/09/17 01:36:43;;;;;;;10.85;6.37;;;;;;;14.54;54.91;99416.58;1718131;82;21659;-69
2021/09/17 01:39:10;;;;;;;11.28;6.55;;;;;;;14.59;54.75;99415.67;1746789;82;21043;-69
2021/09/17 01:41:36;;;;;;;;;;;;;;;14.61;54.60;99411.50;1741653;82;21565;-69
2021/09/17 01:44:03;;;;;;;10.98;6.45;;;;;;;14.64;54.49;99410.89;1723155;82;20142;-69
2021/09/17 01:46:30;;;;;;;15.75;6.75;;;;;;;14.60;54.83;99409.06;1731032;82;21671;-70
2021/09/17 01:48:58;;;;;;;13.53;7.33;;;;;;;14.62;54.53;99414.51;1742672;82;21542;-69
2021/09/17 01:51:26;;;;;;;15.65;8.05;;;;;;;14.66;54.60;99411.97;1743131;82;21087;-70
2021/09/17 01:53:53;;;;;;;15.48;8.08;;;;;;;14.68;54.24;99411.09;1733419;82;21330;-70
2021/09/17 01:56:23;;;;;;;15.63;7.65;;;;;;;14.71;54.30;99409.10;1745064;82;21030;-69
2021/09/17 01:58:50;;;;;;;11.73;6.40;;;;;;;14.73;54.11;99399.48;1742021;82;21509;-70
2021/09/17 02:01:17;;;;;;;11.45;6.53;;;;;;;14.76;54.10;99399.41;1739420;82;21530;-69
2021/09/17 02:03:45;;;;;;;11.93;6.50;;;;;;;14.79;54.03;99387.84;1677552;85;21087;-70
2021/09/17 02:06:21;;;;;;;10.43;6.30;;;;;;;14.80;53.95;99381.25;1674661;84;21086;-69
2021/09/17 02:08:49;;;;;;;12.07;5.75;;;;;;;14.80;53.88;99379.88;1697239;84;21007;-70
2021/09/17 02:11:18;;;;;;;9.55;5.42;;;;;;;14.80;53.30;99373.03;1696908;84;21027;-69
2021/09/17 02:13:46;;;;;;;9.30;5.72;;;;;;;14.83;53.27;99371.03;1674397;84;21079;-69
2021/09/17 02:16:14;;;;;;;8.58;5.25;;;;;;;14.85;53.29;99370.97;1733660;82;22040;-69
2021/09/17 02:18:40;;;;;;;;;;;;;;;14.87;52.94;99367.38;1749915;82;21542;-70
2021/09/17 02:21:06;;;;;;;10.28;5.10;;;;;;;14.90;52.86;99364.58;1737203;82;20098;-69
2021/09/17 02:23:34;;;;;;;9.65;5.75;;;;;;;14.84;52.99;99367.19;1742099;82;21092;-70
2021/09/17 02:26:02;;;;;;;11.25;5.42;;;;;;;14.86;53.22;99367.12;1745010;82;21067;-69
2021/09/17 02:28:28;;;;;;;10.32;5.40;;;;;;;14.87;52.97;99355.60;1731796;82;21089;-70
2021/09/17 02:30:55;;;;;;;10.35;5.15;;;;;;;14.87;53.15;99356.42;1671706;85;21146;-69
2021/09/17 02:33:21;;;;;;;11.57;5.28;;;;;;;14.87;53.42;99348.75;1723887;82;21502;-69
2021/09/17 02:35:47;;;;;;;10.58;4.85;;;;;;;14.86;53.35;99349.86;1723677;82;21010;-69
2021/09/17 02:38:15;;;;;;;9.85;4.62;;;;;;;14.85;53.25;99344.13;1740002;82;21019;-69
2021/09/17 02:40:42;;;;;;;10.80;5.05;;;;;;;14.85;53.40;99346.86;1744245;82;21031;-69
2021/09/17 02:43:09;;;;;;;8.25;4.67;;;;;;;14.85;53.08;99339.45;1728772;82;21493;-69
2021/09/17 02:45:36;;;;;;;8.43;4.85;;;;;;;14.86;53.06;99337.53;1745553;82;21050;-69
2021/09/17 02:48:03;;;;;;;;;;;;;;;14.87;53.13;99336.42;1688559;85;21059;-69
2021/09/17 02:50:31;;;;;;;9.18;4.45;;;;;;;14.88;53.35;99342.94;1677316;84;20145;-69
2021/09/17 02:52:57;;;;;;;;;;;;;;;14.82;53.66;99336.52;1737743;82;20960;-69
2021/09/17 02:55:24;;;;;;;8.88;4.83;;;;;;;14.83;53.22;99330.75;1743067;82;20142;-69
2021/09/17 02:57:52;;;;;;;8.08;4.20;;;;;;;14.79;53.36;99337.96;1676464;85;21083;-69
2021/09/17 03:00:20;;;;;;;9.68;5.12;;;;;;;14.81;53.47;99326.12;1736004;82;21013;-69
2021/09/17 03:02:46;;;;;;;;;;;;;;;14.83;53.31;99322.53;1751140;82;21062;-69
2021/09/17 03:05:13;;;;;;;7.78;4.53;;;;;;;14.85;53.21;99317.53;1699550;82;20120;-69
2021/09/17 03:07:39;;;;;;;9.75;4.55;;;;;;;14.80;53.00;99312.74;1744457;82;21101;-69
2021/09/17 03:10:07;;;;;;;9.68;4.70;;;;;;;14.81;53.09;99304.20;1738739;82;20979;-69
2021/09/17 03:12:35;;;;;;;7.83;4.33;;;;;;;14.84;53.10;99311.80;1739697;82;21063;-69
2021/09/17 03:15:04;;;;;;;12.13;4.70;;;;;;;14.83;52.84;99299.23;1733250;82;21062;-68
2021/09/17 03:17:30;;;;;;;7.45;4.15;;;;;;;14.83;53.17;99300.60;1720775;82;21671;-69
2021/09/17 03:19:57;;;;;;;8.08;3.60;;;;;;;14.83;53.04;99296.50;1751705;82;21564;-69
2021/09/17 03:22:25;;;;;;;9.83;4.33;;;;;;;14.84;52.93;99291.83;1735846;82;21675;-69
2021/09/17 03:24:51;;;;;;;;;;;;;;;14.85;52.73;99288.76;1752024;81;21222;-69
2021/09/17 03:27:19;;;;;;;8.43;4.15;;;;;;;14.87;52.58;99283.80;1752514;82;20134;-69
2021/09/17 03:29:45;;;;;;;7.05;4.20;;;;;;;14.82;52.57;99288.02;1730735;82;21023;-69
2021/09/17 03:32:11;;;;;;;7.40;4.58;;;;;;;14.86;52.78;99288.20;1729374;82;21095;-68
2021/09/17 03:34:38;;;;;;;9.30;4.45;;;;;;;14.86;52.63;99291.76;1738424;82;21079;-68
2021/09/17 03:37:05;;;;;;;9.68;4.28;;;;;;;14.88;52.67;99286.77;1742791;82;21542;-69
2021/09/17 03:39:31;;;;;;;10.50;5.17;;;;;;;14.91;52.58;99288.88;1726204;82;21671;-68
2021/09/17 03:41:57;;;;;;;10.38;5.05;;;;;;;14.93;52.48;99289.39;1738890;82;21063;-69
2021/09/17 03:44:24;;;;;;;9.88;4.97;;;;;;;14.94;52.48;99286.91;1737737;82;21077;-70
2021/09/17 03:46:50;;;;;;;;;;;;;;;14.96;52.32;99282.47;1736733;82;21106;-69
2021/09/17 03:49:16;;;;;;;9.08;4.55;;;;;;;14.98;52.28;99276.69;1737830;82;20111;-69
2021/09/17 03:51:44;;;;;;;8.33;3.80;;;;;;;14.91;52.65;99273.80;1733528;82;21106;-69
2021/09/17 03:54:10;;;;;;;;;;;;;;;14.94;52.72;99276.51;1736645;82;21066;-70
2021/09/17 03:56:37;;;;;;;10.90;4.30;;;;;;;14.95;52.77;99278.10;1739170;82;20114;-70
2021/09/17 03:59:04;;;;;;;10.05;3.90;;;;;;;14.89;53.01;99271.14;1739562;82;21495;-70
2021/09/17 04:01:31;;;;;;;7.10;4.03;;;;;;;14.90;52.77;99270.02;1739062;82;21102;-70
2021/09/17 04:03:57;;;;;;;10.15;3.85;;;;;;;14.92;52.71;99265.84;1738492;82;20967;-70
2021/09/17 04:06:23;;;;;;;8.78;4.22;;;;;;;14.93;52.94;99259.80;1738414;82;21452;-70
2021/09/17 04:08:49;;;;;;;9.63;4.35;;;;;;;14.95;53.09;99264.40;1736843;82;21022;-70
2021/09/17 04:11:17;;;;;;;9.50;4.35;;;;;;;14.95;53.14;99263.03;1738073;82;21046;-70
2021/09/17 04:13:44;;;;;;;9.18;4.70;;;;;;;14.94;53.18;99260.06;1736546;82;20991;-70
2021/09/17 04:16:12;;;;;;;11.75;5.53;;;;;;;14.93;53.29;99257.88;1739002;82;21019;-70
2021/09/17 04:18:39;;;;;;;12.25;7.10;;;;;;;14.92;53.37;99258.17;1738687;82;21127;-70
2021/09/17 04:21:07;;;;;;;11.30;6.00;;;;;;;14.93;53.39;99251.58;1736089;82;21019;-69
2021/09/17 04:23:33;;;;;;;14.28;5.60;;;;;;;14.92;53.26;99249.95;1741545;82;20995;-70
2021/09/17 04:25:59;;;;;;;10.25;5.20;;;;;;;14.91;53.35;99246.98;1737186;82;21102;-70
2021/09/17 04:28:26;;;;;;;8.38;4.58;;;;;;;14.90;53.31;99247.55;1713829;82;20975;-70
2021/09/17 04:30:52;;;;;;;8.75;4.65;;;;;;;14.90;53.39;99242.62;1734070;82;21079;-69
2021/09/17 04:33:18;;;;;;;8.05;4.33;;;;;;;14.89;53.33;99247.28;1723443;83;21007;-70
2021/09/17 04:35:45;;;;;;;7.67;4.85;;;;;;;14.90;53.39;99242.06;1743932;82;21031;-70
2021/09/17 04:38:14;;;;;;;12.45;4.30;;;;;;;14.89;53.55;99246.47;1736660;82;20947;-70
2021/09/17 04:40:42;;;;;;;6.65;3.90;;;;;;;14.89;53.69;99241.80;1752139;82;21026;-70
2021/09/17 04:43:09;;;;;;;9.13;4.47;;;;;;;14.90;53.52;99241.25;1733482;81;21047;-70
2021/09/17 04:45:35;;;;;;;7.60;4.05;;;;;;;14.89;53.47;99238.25;1736359;82;21018;-70
2021/09/17 04:48:13;;;;;;;8.60;4.62;;;;;;;14.90;53.85;99236.58;1734640;82;20987;-70
2021/09/17 04:50:40;;;;;;;13.28;5.78;;;;;;;14.91;53.80;99227.80;1734131;82;21031;-69
2021/09/17 04:53:07;;;;;;;11.50;6.10;;;;;;;14.93;53.81;99238.70;1731722;82;20999;-70
2021/09/17 04:55:34;;;;;;;10.95;5.35;;;;;;;14.95;53.76;99236.99;1733779;82;21588;-69
2021/09/17 04:58:03;;;;;;;11.25;5.25;;;;;;;14.98;53.81;99240.51;1736522;82;21459;-71
2021/09/17 05:00:30;;;;;;;9.05;4.67;;;;;;;15.03;53.93;99242.28;1743937;82;21039;-68
2021/09/17 05:02:56;;;;;;;11.38;4.85;;;;;;;15.07;53.87;99238.62;1751283;82;21047;-68
2021/09/17 05:05:23;;;;;;;11.30;5.53;;;;;;;15.12;53.92;99234.39;1748644;82;21557;-69
2021/09/17 05:07:51;;;;;;;9.18;5.50;;;;;;;15.17;53.97;99234.23;1731002;82;21070;-68
2021/09/17 05:10:17;;;;;;;11.38;5.30;;;;;;;15.23;53.93;99230.82;1741472;82;21066;-68
2021/09/17 05:12:45;;;;;;;9.03;4.55;;;;;;;15.27;53.85;99218.89;1741473;82;21110;-68
2021/09/17 05:15:13;;;;;;;9.45;4.95;;;;;;;15.33;54.01;99214.09;1671853;85;21102;-68
2021/09/17 05:17:39;;;;;;;9.93;4.72;;;;;;;15.39;53.91;99212.83;1739185;82;21018;-68
2021/09/17 05:20:07;;;;;;;6.95;4.40;;;;;;;15.44;53.91;99199.77;1738844;82;21065;-68
2021/09/17 05:22:35;;;;;;;10.08;4.78;;;;;;;15.51;53.92;99198.00;1736675;82;21019;-68
2021/09/17 05:25:01;;;;;;;;;;;;;;;15.62;53.99;99191.09;1728191;82;21039;-68
2021/09/17 05:27:29;;;;;;;7.83;4.17;;;;;;;15.75;53.66;99188.79;1716949;82;20115;-69
2021/09/17 05:29:55;;;;;;;;;;;;;;;15.80;53.48;99186.47;1740224;82;22219;-68
2021/09/17 05:32:24;;;;;;;7.62;3.90;;;;;;;15.91;53.30;99187.76;1710019;82;20110;-69
2021/09/17 05:34:52;;;;;;;7.87;4.00;;;;;;;15.97;53.24;99189.25;1709657;83;21056;-68
2021/09/17 05:37:18;;;;;;;8.13;4.20;;;;;;;16.18;53.41;99192.99;1642499;86;21063;-69
2021/09/17 05:39:45;;;;;;;13.80;4.70;;;;;;;16.37;53.13;99188.55;1709886;84;21107;-69
2021/09/17 05:42:11;;;;;;;14.87;5.40;;;;;;;16.46;52.88;99183.06;1710164;82;21032;-69
2021/09/17 05:44:37;;;;;;;8.88;4.65;;;;;;;16.44;52.81;99179.25;1663863;86;21121;-69
2021/09/17 05:47:05;;;;;;;10.75;5.92;;;;;;;16.37;52.90;99178.37;1709693;84;21095;-69
2021/09/17 05:49:32;;;;;;;11.70;5.45;;;;;;;16.34;53.71;99176.27;1709930;83;21043;-69
2021/09/17 05:51:59;;;;;;;14.60;5.70;;;;;;;16.32;53.82;99175.80;1710452;82;21107;-69
2021/09/17 05:54:29;;;;;;;9.93;5.25;;;;;;;16.33;54.19;99177.39;1709913;84;21031;-69
2021/09/17 05:56:55;;;;;;;10.28;5.40;;;;;;;16.34;54.35;99182.33;1664025;86;21082;-69
2021/09/17 05:59:22;;;;;;;7.33;4.55;;;;;;;16.37;54.75;99175.62;1709624;84;21036;-69
2021/09/17 06:01:49;;;;;;;8.38;4.83;;;;;;;16.38;54.98;99173.69;1710146;82;21153;-69
2021/09/17 06:04:16;;;;;;;13.05;4.65;;;;;;;16.40;55.40;99165.95;1663714;86;21525;-69
2021/09/17 06:06:43;;;;;;;7.72;4.30;;;;;;;16.48;55.39;99164.30;1711156;82;21032;-68
2021/09/17 06:09:09;;;;;;;12.37;5.00;;;;;;;16.55;55.45;99161.87;1714208;82;20984;-69
2021/09/17 06:11:38;;;;;;;11.12;4.42;;;;;;;16.66;55.44;99159.06;1656494;86;21079;-69
2021/09/17 06:14:06;;;;;;;8.25;4.20;;;;;;;16.77;55.58;99168.03;1709613;84;20996;-70
2021/09/17 06:16:34;;;;;;;8.38;4.60;;;;;;;16.93;55.41;99162.84;1658337;86;21130;-68
2021/09/17 06:19:02;;;;;;;10.13;4.28;;;;;;;17.11;55.52;99165.75;1721437;82;20991;-70
2021/09/17 06:21:31;;;;;;;11.78;4.67;;;;;;;17.35;55.22;99163.83;1661231;86;21134;-69
2021/09/17 06:23:57;;;;;;;10.25;4.60;;;;;;;17.66;54.56;99158.03;1712553;82;20967;-71
2021/09/17 06:26:24;;;;;;;10.70;4.92;;;;;;;17.94;54.30;99161.91;1673848;84;21053;-70
2021/09/17 06:28:50;;;;;;;9.83;4.87;;;;;;;18.13;53.87;99158.15;1690952;84;20990;-70
2021/09/17 06:31:17;;;;;;;;;;;;;;;18.23;53.54;99152.23;1688365;85;21609;-70
2021/09/17 06:33:43;;;;;;;11.12;4.47;;;;;;;18.24;53.45;99149.72;1664702;85;20143;-70
2021/09/17 06:36:09;;;;;;;9.40;4.97;;;;;;;18.14;54.38;99145.97;1699866;84;21081;-68
2021/09/17 06:38:37;;;;;;;12.33;4.00;;;;;;;18.14;54.23;99146.56;1705086;84;21066;-69
2021/09/17 06:41:05;;;;;;;;;;;;;;;18.09;54.75;99153.07;1695254;84;21089;-72
2021/09/17 06:43:32;;;;;;;8.78;4.03;;;;;;;18.06;54.74;99141.35;1677202;85;20135;-71
2021/09/17 06:45:58;;;;;;;;;;;;;;;17.96;55.38;99146.45;1688405;85;21054;-70
2021/09/17 06:48:25;;;;;;;9.80;4.87;;;;;;;17.97;55.56;99140.59;1690919;84;20147;-69
2021/09/17 06:50:53;;;;;;;8.78;4.22;;;;;;;17.91;56.15;99132.30;1711131;84;21031;-70
2021/09/17 06:53:19;;;;;;;;;;;;;;;17.92;56.66;99127.03;1714498;83;21030;-71
2021/09/17 06:55:45;;;;;;;7.37;4.05;;;;;;;17.95;57.08;99131.87;1713795;84;20388;-68
2021/09/17 06:58:12;;;;;;;11.35;4.62;;;;;;;17.90;56.91;99125.17;1699429;84;21026;-71
2021/09/17 07:00:39;;;;;;;8.55;4.42;;;;;;;17.92;56.83;99129.79;1703383;84;21612;-71
2021/09/17 07:03:05;;;;;;;10.63;5.10;;;;;;;17.99;57.21;99130.63;1714482;84;21588;-70
2021/09/17 07:05:32;;;;;;;14.20;5.55;;;;;;;18.06;57.34;99115.75;1691401;84;21014;-71
2021/09/17 07:08:08;;;;;;;11.35;5.75;;;;;;;18.12;57.09;99114.41;1696408;84;21002;-70
2021/09/17 07:10:38;;;;;;;14.63;6.12;;;;;;;18.19;57.42;99118.23;1710360;84;20991;-70
2021/09/17 07:13:06;;;;;;;14.18;5.85;;;;;;;18.29;57.38;99126.09;1688658;84;21489;-70
2021/09/17 07:15:32;;;;;;;10.13;5.22;;;;;;;18.39;57.44;99126.23;1685953;85;21065;-70
2021/09/17 07:18:01;;;;;;;15.18;5.83;;;;;;;18.44;57.34;99126.04;1691539;84;21007;-69
2021/09/17 07:20:27;;;;;;;14.63;5.62;;;;;;;18.46;57.69;99126.49;1673923;84;21101;-69
2021/09/17 07:22:53;;;;;;;;;;;;;;;18.53;57.67;99124.03;1692171;84;21168;-69
2021/09/17 07:26:12;;;;;;;9.85;5.67;;;;;;;18.68;57.46;99119.83;1794716;79;22961;-68
2021/09/17 07:28:39;;;;;;;15.25;6.90;;;;;;;18.64;57.82;99124.41;1752639;82;21011;-69
2021/09/17 07:31:06;;;;;;;12.03;5.85;;;;;;;18.68;57.63;99116.51;1732032;82;21836;-69
2021/09/17 07:33:32;;;;;;;;;;;;;;;18.71;57.58;99119.96;1725877;83;21564;-69
2021/09/17 07:35:58;;;;;;;11.63;5.10;;;;;;;18.73;57.42;99115.50;1724767;82;20125;-69
2021/09/17 07:38:24;;;;;;;;;;;;;;;18.65;57.57;99109.49;1679652;85;21050;-73
2021/09/17 07:40:51;;;;;;;10.23;5.40;;;;;;;18.62;57.31;99111.55;1668403;84;20151;-69
2021/09/17 07:43:18;;;;;;;11.78;5.78;;;;;;;18.49;57.50;99109.31;1686670;84;21083;-70
2021/09/17 07:45:46;;;;;;;11.80;5.92;;;;;;;18.44;58.05;99110.07;1650890;87;21097;-69
2021/09/17 07:48:13;;;;;;;8.55;5.33;;;;;;;18.39;58.39;99106.38;1677534;84;20971;-69
2021/09/17 07:50:39;;;;;;;15.13;6.67;;;;;;;18.38;58.59;99104.79;1701543;84;21054;-69
2021/09/17 07:53:06;;;;;;;12.05;6.25;;;;;;;18.42;58.60;99115.13;1701848;84;21043;-69
2021/09/17 07:55:34;;;;;;;15.58;6.85;;;;;;;18.39;58.70;99110.52;1701471;84;21050;-69
2021/09/17 07:58:03;;;;;;;12.63;7.03;;;;;;;18.35;59.02;99106.03;1701747;84;21015;-69
2021/09/17 08:00:30;;;;;;;13.35;7.70;;;;;;;18.33;59.55;99110.50;1652038;84;21905;-69
2021/09/17 08:02:56;;;;;;;17.27;7.47;;;;;;;18.31;59.84;99109.23;1687101;84;21068;-69
2021/09/17 08:05:23;;;;;;;13.45;8.18;;;;;;;18.31;59.99;99110.61;1678516;85;21039;-69
2021/09/17 08:07:52;;;;;;;14.78;9.28;;;;;;;18.34;60.25;99104.41;1691853;84;21007;-68
2021/09/17 08:10:19;;;;;;;19.23;9.68;;;;;;;18.29;60.36;99099.09;1707089;84;21117;-69
2021/09/17 08:12:45;;;;;;;14.30;8.73;;;;;;;18.24;60.73;99089.69;1705030;84;21090;-69
2021/09/17 08:15:13;;;;;;;14.63;9.35;;;;;;;18.22;61.10;99095.52;1678478;85;21569;-69
2021/09/17 08:17:40;;;;;;;18.75;8.88;;;;;;;18.23;61.35;99086.69;1678669;85;21066;-69
2021/09/17 08:20:08;;;;;;;16.75;9.15;;;;;;;18.28;61.42;99080.98;1678409;85;21608;-69
2021/09/17 08:22:34;;;;;;;12.05;8.53;;;;;;;18.28;61.55;99082.36;1636257;87;21069;-69
2021/09/17 08:25:01;;;;;;;12.68;8.15;;;;;;;18.24;61.78;99075.91;1683722;82;21064;-68
2021/09/17 08:27:29;;;;;;;15.93;7.60;;;;;;;18.20;62.11;99081.28;1675249;84;21108;-68
2021/09/17 08:29:55;;;;;;;16.23;8.15;;;;;;;18.22;62.30;99083.12;1688605;84;21036;-68
2021/09/17 08:32:22;;;;;;;14.73;7.67;;;;;;;18.29;62.47;99075.68;1685797;84;21089;-68
2021/09/17 08:34:48;;;;;;;;;;;;;;;18.31;62.51;99076.16;1733888;82;21063;-67
2021/09/17 08:37:15;;;;;;;16.82;7.80;;;;;;;18.31;62.73;99078.36;1718374;81;20107;-68
2021/09/17 08:39:42;;;;;;;14.23;7.92;;;;;;;18.27;63.03;99077.98;1713906;82;21027;-69
2021/09/17 08:42:09;;;;;;;11.33;7.87;;;;;;;18.34;62.88;99071.35;1723782;82;21513;-67
2021/09/17 08:44:36;;;;;;;13.68;7.42;;;;;;;18.43;62.86;99072.06;1735355;82;21562;-69
2021/09/17 08:47:06;;;;;;;12.85;7.30;;;;;;;18.48;62.93;99071.05;1734086;82;21031;-69
2021/09/17 08:49:34;;;;;;;11.10;7.15;;;;;;;18.52;62.94;99063.75;1739367;82;21070;-69
2021/09/17 08:52:03;;;;;;;15.80;6.95;;;;;;;18.52;62.86;99051.34;1673217;85;21031;-69
2021/09/17 08:54:31;;;;;;;11.53;6.87;;;;;;;18.60;62.74;99046.33;1656480;86;21103;-69
2021/09/17 08:56:57;;;;;;;;;;;;;;;18.66;62.51;99046.33;1718500;82;21071;-69
2021/09/17 08:59:24;;;;;;;12.98;7.20;;;;;;;18.66;62.84;99043.00;1722897;82;20143;-69
2021/09/17 09:01:50;;;;;;;;;;;;;;;18.60;62.86;99040.81;1741380;82;21087;-70
2021/09/17 09:04:18;;;;;;;13.48;7.75;;;;;;;18.61;62.90;99040.45;1739300;82;20476;-69
2021/09/17 09:06:48;;;;;;;12.80;7.30;;;;;;;18.57;62.88;99040.09;1687377;82;21134;-69
2021/09/17 09:09:19;;;;;;;12.05;6.40;;;;;;;18.63;62.86;99031.86;1737453;82;21006;-70
2021/09/17 09:11:49;;;;;;;12.15;6.60;;;;;;;18.73;62.57;99027.27;1709577;83;21067;-69
2021/09/17 09:14:16;;;;;;;14.78;7.85;;;;;;;18.77;62.62;99022.12;1663499;86;21506;-69
2021/09/17 09:16:46;;;;;;;11.93;7.90;;;;;;;18.78;62.35;99020.14;1709686;84;21550;-70
2021/09/17 09:19:37;;;;;;;13.32;8.35;;;;;;;18.80;62.46;99022.00;1648331;86;21527;-69
2021/09/17 09:22:09;;;;;;;16.02;8.45;;;;;;;18.84;62.67;99006.38;1710030;84;21095;-69
2021/09/17 09:24:41;;;;;;;17.95;8.73;;;;;;;18.93;62.44;99016.72;1711120;83;21050;-69
2021/09/17 09:27:18;;;;;;;16.65;8.43;;;;;;;19.02;62.64;99009.72;1723250;83;21633;-69
2021/09/17 09:29:48;;;;;;;11.60;7.30;;;;;;;19.03;62.21;99007.98;1723149;82;21058;-69
2021/09/17 09:32:33;;;;;;;15.03;8.43;;;;;;;19.01;62.11;99001.20;1723098;83;21130;-69
2021/09/17 09:35:01;;;;;;;13.53;8.08;;;;;;;19.02;62.31;99000.88;1686545;85;21071;-69
2021/09/17 09:37:30;;;;;;;19.60;8.03;;;;;;;19.03;62.33;98994.76;1724101;82;21593;-69
2021/09/17 09:40:03;;;;;;;11.25;6.95;;;;;;;19.09;62.29;98994.20;1723303;83;21019;-69
2021/09/17 09:42:39;;;;;;;14.40;7.47;;;;;;;19.12;62.21;98996.84;1723694;83;21140;-69
2021/09/17 09:45:16;;;;;;;12.55;7.62;;;;;;;19.16;62.47;99005.47;1723318;83;21038;-69
2021/09/17 09:47:54;;;;;;;15.08;8.00;;;;;;;19.23;62.33;99007.07;1724124;82;21557;-69
2021/09/17 09:50:29;;;;;;;14.73;8.38;;;;;;;19.35;62.08;99001.52;1685435;85;21632;-69
2021/09/17 09:53:00;;;;;;;13.55;7.53;;;;;;;19.51;61.53;98997.52;1753401;82;21014;-69
2021/09/17 09:55:28;;;;;;;17.75;7.45;;;;;;;19.68;61.15;99000.57;1753273;82;21085;-69
2021/09/17 09:57:55;;;;;;;12.88;7.40;;;;;;;19.79;61.40;99003.08;1732060;82;21074;-69
2021/09/17 10:00:24;;;;;;;10.63;7.00;;;;;;;19.92;60.96;99007.39;1722979;83;21671;-69
2021/09/17 10:02:50;;;;;;;15.20;7.12;;;;;;;20.01;60.47;99006.69;1723366;83;21133;-69
2021/09/17 10:05:18;;;;;;;14.20;7.37;;;;;;;20.07;60.37;98998.94;1723030;83;21059;-70
2021/09/17 10:07:44;;;;;;;10.82;6.62;;;;;;;20.10;59.94;98996.27;1686109;85;21043;-69
2021/09/17 10:10:13;;;;;;;12.98;7.28;;;;;;;20.15;59.93;99001.56;1723911;82;21051;-70
2021/09/17 10:12:40;;;;;;;11.05;7.22;;;;;;;20.21;59.85;98995.99;1723403;83;21643;-69
2021/09/17 10:15:09;;;;;;;19.98;8.33;;;;;;;20.31;60.01;98985.83;1723403;83;21054;-69
2021/09/17 10:17:38;;;;;;;12.85;8.18;;;;;;;20.42;59.87;98990.84;1723832;82;21580;-69
2021/09/17 10:20:07;;;;;;;16.75;8.50;;;;;;;20.42;59.37;98985.31;1723466;83;21086;-69
2021/09/17 10:22:38;;;;;;;11.90;8.38;;;;;;;20.42;59.37;98987.50;1686214;85;21606;-70
2021/09/17 10:25:17;;;;;;;14.43;8.68;;;;;;;20.39;59.63;98986.02;1720254;83;21454;-70
2021/09/17 10:28:02;;;;;;;14.07;8.95;;;;;;;20.38;59.99;98988.55;1640590;84;21047;-70
2021/09/17 10:30:33;;;;;;;12.40;8.63;;;;;;;20.38;60.27;98981.64;1730307;82;21059;-70
2021/09/17 10:33:01;;;;;;;14.87;8.38;;;;;;;20.39;59.97;98978.53;1739120;82;21075;-70
2021/09/17 10:35:43;;;;;;;14.45;8.50;;;;;;;20.35;59.65;98980.40;1726050;82;21028;-70
2021/09/17 10:38:27;;;;;;;14.47;7.90;;;;;;;20.31;59.97;98977.54;1709901;84;21055;-70
2021/09/17 10:41:03;;;;;;;15.60;9.05;;;;;;;20.32;60.10;98975.59;1645333;86;21625;-69
2021/09/17 10:43:39;;;;;;;15.38;8.68;;;;;;;20.35;60.11;98976.25;1710061;84;20980;-70
2021/09/17 10:46:11;;;;;;;15.25;8.68;;;;;;;20.44;60.16;98971.34;1710438;82;21585;-70
2021/09/17 10:48:47;;;;;;;13.72;8.40;;;;;;;20.58;59.65;98964.80;1661009;85;21078;-70
2021/09/17 10:51:30;;;;;;;;;;;;;;;20.71;59.76;98964.16;1712233;84;21530;-69
2021/09/17 10:53:59;;;;;;;18.48;8.25;;;;;;;20.76;59.32;98963.90;1709880;84;20106;-70
2021/09/17 10:56:26;;;;;;;13.58;7.85;;;;;;;20.74;59.27;98964.24;1710083;82;21078;-70
2021/09/17 10:59:13;;;;;;;14.55;8.63;;;;;;;20.80;59.23;98950.94;1739230;82;20996;-70
2021/09/17 11:02:07;;;;;;;14.83;8.65;;;;;;;20.90;59.09;98952.38;1739074;82;21067;-69
2021/09/17 11:04:43;;;;;;;14.98;8.15;;;;;;;20.94;58.77;98942.20;1738973;82;21107;-69
2021/09/17 11:07:32;;;;;;;14.40;7.87;;;;;;;20.99;58.67;98941.91;1739286;82;21047;-70
2021/09/17 11:09:57;;;;;;;12.78;7.70;;;;;;;21.07;58.42;98940.92;1739285;81;21559;-69
2021/09/17 11:12:35;;;;;;;14.73;7.67;;;;;;;21.16;57.72;98931.28;1738959;82;21111;-69
2021/09/17 11:15:14;;;;;;;11.50;6.58;;;;;;;21.23;57.90;98933.40;1738898;82;21418;-70
2021/09/17 11:17:55;;;;;;;17.85;8.20;;;;;;;21.27;57.76;98939.25;1709595;83;21071;-70
2021/09/17 11:20:31;;;;;;;14.30;8.18;;;;;;;21.32;57.93;98929.28;1675788;85;21070;-70
2021/09/17 11:23:03;;;;;;;17.17;8.45;;;;;;;21.33;57.83;98918.41;1671372;86;21059;-70
2021/09/17 11:25:34;;;;;;;12.90;7.95;;;;;;;21.30;57.63;98922.48;1699199;83;21565;-69
2021/09/17 11:28:04;;;;;;;16.30;9.03;;;;;;;21.26;57.84;98916.06;1724466;83;21042;-70
2021/09/17 11:30:32;;;;;;;16.52;8.28;;;;;;;21.21;58.13;98917.17;1690314;85;21495;-70
2021/09/17 11:32:58;;;;;;;15.18;8.15;;;;;;;21.13;58.38;98911.83;1690422;85;21084;-70
2021/09/17 11:35:25;;;;;;;16.32;8.30;;;;;;;21.12;58.64;98912.41;1685096;85;21145;-69
2021/09/17 11:37:57;;;;;;;19.32;8.25;;;;;;;21.15;58.58;98908.91;1690265;85;21049;-70
2021/09/17 11:40:27;;;;;;;19.42;8.15;;;;;;;21.18;58.54;98912.94;1690203;85;21567;-70